Time;durP1;ratioP1;P1;durP2;ratioP2;P2;SDS_P1;SDS_P2;PMS_P1;PMS_P2;Temp;Humidity;BMP_temperature;BMP_pressure;BME280_temperature;BME280_humidity;BME280_pressure;Samples;Min_cycle;Max_cycle;Signal;HPM_P1;HPM_P2
2023/12/18 00:01:13;;;;;;;30.02;10.88;;;7.70;99.90;;;;;;4920265;29;20106;-81
2023/12/18 00:03:38;;;;;;;34.30;12.48;;;7.70;99.90;;;;;;4926909;29;20099;-75
2023/12/18 00:06:06;;;;;;;30.70;10.80;;;7.70;99.90;;;;;;4932604;29;20071;-78
2023/12/18 00:08:32;;;;;;;26.80;11.02;;;7.70;99.90;;;;;;4928173;29;20096;-76
2023/12/18 00:10:58;;;;;;;27.90;11.27;;;7.70;99.90;;;;;;4923598;29;20051;-76
2023/12/18 00:13:24;;;;;;;30.40;11.80;;;7.70;99.90;;;;;;4925509;29;20036;-82
2023/12/18 00:15:49;;;;;;;31.90;11.60;;;7.70;99.90;;;;;;4914899;29;20083;-87
2023/12/18 00:18:15;;;;;;;25.10;10.38;;;7.90;99.90;;;;;;4919856;29;20039;-85
2023/12/18 00:20:41;;;;;;;28.38;11.43;;;7.70;99.90;;;;;;4919641;29;20512;-83
2023/12/18 00:23:06;;;;;;;25.10;9.98;;;7.70;99.90;;;;;;4928430;29;20051;-84
2023/12/18 00:25:32;;;;;;;32.33;11.00;;;7.70;99.90;;;;;;4925675;29;20694;-75
2023/12/18 00:27:57;;;;;;;32.47;10.05;;;7.70;99.90;;;;;;4917791;29;20052;-80
2023/12/18 00:30:28;;;;;;;29.48;10.13;;;7.70;99.90;;;;;;4926836;29;20066;-76
2023/12/18 00:32:54;;;;;;;27.25;10.43;;;7.70;99.90;;;;;;4925907;29;20050;-87
2023/12/18 00:35:19;;;;;;;23.00;9.93;;;7.90;99.90;;;;;;4921746;29;20384;-77
2023/12/18 00:37:45;;;;;;;26.05;10.07;;;7.80;99.90;;;;;;4918350;29;20123;-76
2023/12/18 00:40:11;;;;;;;33.45;10.80;;;7.80;99.90;;;;;;4926169;29;20484;-90
2023/12/18 00:42:36;;;;;;;25.33;9.15;;;7.80;99.90;;;;;;4928587;29;20055;-93
2023/12/18 00:45:02;;;;;;;27.73;10.10;;;7.80;99.90;;;;;;4919566;29;20051;-95
2023/12/18 00:47:28;;;;;;;32.38;10.40;;;7.80;99.90;;;;;;4919680;29;20067;-77
2023/12/18 00:49:54;;;;;;;27.92;9.73;;;7.80;99.90;;;;;;4916267;29;20055;-76
2023/12/18 00:52:19;;;;;;;38.72;10.43;;;7.80;99.90;;;;;;4924967;29;20043;-75
2023/12/18 00:54:45;;;;;;;34.55;9.50;;;7.80;99.90;;;;;;4923602;29;20396;-74
2023/12/18 00:57:10;;;;;;;28.50;8.95;;;7.80;99.90;;;;;;4926164;29;20047;-79
2023/12/18 00:59:36;;;;;;;28.10;9.73;;;7.80;99.90;;;;;;4914635;29;20052;-76
2023/12/18 01:02:01;;;;;;;31.63;9.90;;;7.80;99.90;;;;;;4919328;29;20115;-77
2023/12/18 01:04:27;;;;;;;28.67;9.63;;;7.90;99.90;;;;;;4925490;29;20083;-80
2023/12/18 01:06:53;;;;;;;26.10;9.48;;;8.20;99.90;;;;;;4914894;29;20401;-75
2023/12/18 01:09:18;;;;;;;32.15;9.38;;;7.90;99.90;;;;;;4898072;29;20056;-76
2023/12/18 01:11:44;;;;;;;25.52;9.88;;;7.80;99.90;;;;;;4919058;29;20044;-76
2023/12/18 01:14:10;;;;;;;31.58;10.07;;;7.80;99.90;;;;;;4907149;29;20411;-76
2023/12/18 01:16:35;;;;;;;29.63;9.55;;;7.80;99.90;;;;;;4909853;29;20631;-75
2023/12/18 01:19:02;;;;;;;29.58;9.52;;;7.80;99.90;;;;;;4928911;29;20052;-76
2023/12/18 01:21:28;;;;;;;21.23;9.35;;;7.80;99.90;;;;;;4914916;29;20040;-82
2023/12/18 01:23:53;;;;;;;33.90;9.02;;;7.80;99.90;;;;;;4915159;29;20051;-75
2023/12/18 01:26:19;;;;;;;27.27;9.25;;;8.50;99.90;;;;;;4922091;29;20063;-74
2023/12/18 01:28:44;;;;;;;31.13;10.02;;;7.80;99.90;;;;;;4915843;29;20048;-78
2023/12/18 01:31:20;;;;;;;31.02;9.57;;;8.40;99.90;;;;;;4920776;29;20060;-81
2023/12/18 01:33:46;;;;;;;24.95;8.50;;;7.90;99.90;;;;;;4921483;29;20051;-81
2023/12/18 01:36:12;;;;;;;21.92;8.23;;;8.00;99.90;;;;;;4921689;29;20047;-89
2023/12/18 01:38:37;;;;;;;19.80;7.78;;;7.80;99.90;;;;;;4905646;29;20044;-75
2023/12/18 01:41:03;;;;;;;28.80;8.10;;;7.80;99.90;;;;;;4914441;29;20056;-88
2023/12/18 01:43:29;;;;;;;23.15;8.07;;;8.10;99.90;;;;;;4924463;29;20122;-77
2023/12/18 01:46:05;;;;;;;30.80;8.73;;;7.90;99.90;;;;;;4915627;29;20079;-85
2023/12/18 01:48:32;;;;;;;26.33;8.40;;;7.90;99.90;;;;;;4920468;29;20052;-75
2023/12/18 01:50:59;;;;;;;32.13;7.97;;;7.90;99.90;;;;;;4912891;29;20072;-78
2023/12/18 01:53:33;;;;;;;22.58;7.53;;;7.90;99.90;;;;;;4913269;29;20055;-90
2023/12/18 01:56:01;;;;;;;21.85;7.15;;;7.90;99.90;;;;;;4911183;29;20492;-77
2023/12/18 01:58:29;;;;;;;33.33;7.85;;;7.90;99.90;;;;;;4915283;29;20059;-77
2023/12/18 02:00:55;;;;;;;20.67;7.38;;;7.90;99.90;;;;;;4909053;29;20106;-79
2023/12/18 02:03:23;;;;;;;26.33;7.95;;;8.10;99.90;;;;;;4912072;29;20512;-84
2023/12/18 02:05:49;;;;;;;24.23;8.05;;;8.00;99.90;;;;;;4919037;29;20052;-76
2023/12/18 02:08:15;;;;;;;24.02;7.55;;;8.00;99.90;;;;;;4912705;29;20048;-90
2023/12/18 02:10:42;;;;;;;28.73;8.32;;;8.00;99.90;;;;;;4913251;29;20047;-89
2023/12/18 02:13:07;;;;;;;21.10;7.68;;;7.90;99.90;;;;;;4907210;29;20166;-76
2023/12/18 02:15:33;;;;;;;30.25;8.13;;;8.00;99.90;;;;;;4923027;29;20562;-76
2023/12/18 02:17:59;;;;;;;25.27;8.10;;;8.00;99.90;;;;;;4919278;29;20102;-77
2023/12/18 02:20:24;;;;;;;25.48;8.82;;;8.00;99.90;;;;;;4916518;29;20040;-75
2023/12/18 02:22:51;;;;;;;24.95;8.52;;;8.00;99.90;;;;;;4923954;29;20044;-78
2023/12/18 02:25:18;;;;;;;33.90;8.10;;;8.00;99.90;;;;;;4917659;29;20051;-77
2023/12/18 02:27:45;;;;;;;27.70;8.25;;;8.00;99.90;;;;;;4922543;29;20065;-76
2023/12/18 02:30:16;;;;;;;24.30;7.20;;;8.20;99.90;;;;;;4922697;29;20048;-74
2023/12/18 02:32:42;;;;;;;25.48;7.75;;;8.50;99.90;;;;;;4923601;29;20040;-86
2023/12/18 02:35:08;;;;;;;24.27;7.57;;;8.00;99.90;;;;;;4913768;29;20059;-75
2023/12/18 02:37:34;;;;;;;25.45;7.80;;;8.00;99.90;;;;;;4920334;29;20048;-74
2023/12/18 02:40:00;;;;;;;23.75;7.40;;;7.90;99.90;;;;;;4923933;29;20534;-76
2023/12/18 02:42:25;;;;;;;23.52;6.78;;;8.30;99.90;;;;;;4921687;29;20050;-75
2023/12/18 02:44:52;;;;;;;20.10;6.88;;;8.10;99.90;;;;;;4913816;29;20479;-78
2023/12/18 02:47:18;;;;;;;26.33;7.50;;;8.00;99.90;;;;;;4927944;29;20120;-82
2023/12/18 02:49:44;;;;;;;21.20;7.15;;;8.00;99.90;;;;;;4929514;29;20456;-77
2023/12/18 02:52:10;;;;;;;24.00;6.97;;;8.00;99.90;;;;;;4923818;29;20062;-74
2023/12/18 02:54:36;;;;;;;19.73;6.97;;;8.00;99.90;;;;;;4916877;29;20052;-76
2023/12/18 02:57:02;;;;;;;27.38;8.15;;;8.00;99.90;;;;;;4928264;29;20059;-82
2023/12/18 02:59:27;;;;;;;22.35;7.60;;;8.00;99.90;;;;;;4920929;29;20044;-84
2023/12/18 03:01:53;;;;;;;23.17;7.25;;;8.40;99.90;;;;;;4916809;29;20047;-87
2023/12/18 03:04:19;;;;;;;23.80;7.43;;;8.00;99.90;;;;;;4918680;29;20496;-74
2023/12/18 03:06:47;;;;;;;26.50;7.05;;;8.00;99.90;;;;;;4913235;29;20048;-78
2023/12/18 03:09:13;;;;;;;23.23;7.43;;;8.00;99.90;;;;;;4912715;29;20059;-80
2023/12/18 03:11:40;;;;;;;22.17;6.85;;;8.00;99.90;;;;;;4918890;29;20052;-80
2023/12/18 03:14:07;;;;;;;23.52;8.07;;;8.50;99.90;;;;;;4918069;29;20064;-84
2023/12/18 03:16:33;;;;;;;26.13;8.25;;;8.00;99.90;;;;;;4922996;29;20131;-79
2023/12/18 03:18:59;;;;;;;20.42;6.30;;;8.00;99.90;;;;;;4924385;29;20047;-78
2023/12/18 03:21:24;;;;;;;19.70;6.65;;;8.30;99.90;;;;;;4924031;29;20056;-83
2023/12/18 03:23:50;;;;;;;22.42;7.20;;;8.20;99.90;;;;;;4924137;29;20098;-82
2023/12/18 03:26:15;;;;;;;21.33;6.88;;;8.00;99.90;;;;;;4920747;29;20231;-76
2023/12/18 03:28:43;;;;;;;23.73;7.10;;;8.00;99.90;;;;;;4918258;29;20407;-85
2023/12/18 03:31:10;;;;;;;27.02;7.68;;;8.00;99.90;;;;;;4923652;29;20183;-76
2023/12/18 03:33:36;;;;;;;27.05;7.53;;;7.90;99.90;;;;;;4923352;29;20059;-85
2023/12/18 03:36:05;;;;;;;21.73;6.50;;;8.00;99.90;;;;;;4927333;29;20095;-88
2023/12/18 03:38:30;;;;;;;25.52;6.55;;;8.00;99.90;;;;;;4907353;29;20044;-88
2023/12/18 03:40:56;;;;;;;29.13;6.93;;;8.00;99.90;;;;;;4917127;29;20054;-91
2023/12/18 03:43:25;;;;;;;24.77;7.30;;;8.00;99.90;;;;;;4916100;29;20481;-91
2023/12/18 03:45:51;;;;;;;30.25;7.18;;;8.00;99.90;;;;;;4915916;29;20130;-90
2023/12/18 03:48:18;;;;;;;15.90;6.15;;;8.00;99.90;;;;;;4916947;29;20123;-79
2023/12/18 03:50:44;;;;;;;26.02;6.35;;;8.00;99.90;;;;;;4920927;29;20047;-81
2023/12/18 03:53:09;;;;;;;23.92;6.95;;;8.40;99.90;;;;;;4923488;29;20040;-81
2023/12/18 03:55:35;;;;;;;26.90;7.80;;;8.20;99.90;;;;;;4927641;29;20492;-78
2023/12/18 03:58:01;;;;;;;23.67;6.70;;;8.10;99.90;;;;;;4915972;29;20090;-76
2023/12/18 04:00:27;;;;;;;26.25;7.18;;;8.20;99.90;;;;;;4923190;29;20140;-88
2023/12/18 04:02:53;;;;;;;28.17;7.60;;;8.00;99.90;;;;;;4924926;29;20099;-76
2023/12/18 04:05:18;;;;;;;22.80;6.82;;;8.10;99.90;;;;;;4927352;29;20511;-74
2023/12/18 04:07:44;;;;;;;21.77;7.05;;;8.00;99.90;;;;;;4920098;29;20131;-77
2023/12/18 04:10:10;;;;;;;26.45;7.28;;;8.10;99.90;;;;;;4924585;29;20051;-76
2023/12/18 04:12:36;;;;;;;24.73;7.40;;;8.20;99.90;;;;;;4918563;29;20079;-79
2023/12/18 04:15:02;;;;;;;31.70;8.50;;;8.10;99.90;;;;;;4915935;29;20048;-87
2023/12/18 04:17:28;;;;;;;27.98;7.80;;;8.10;99.90;;;;;;4918089;29;20058;-80
2023/12/18 04:19:53;;;;;;;22.52;7.15;;;8.20;99.90;;;;;;4914830;29;20045;-82
2023/12/18 04:22:19;;;;;;;29.08;7.15;;;8.10;99.90;;;;;;4917500;29;20063;-74
2023/12/18 04:24:44;;;;;;;30.55;7.90;;;8.40;99.90;;;;;;4923092;29;20036;-75
2023/12/18 04:27:10;;;;;;;25.05;8.15;;;8.10;99.90;;;;;;4915443;29;20761;-75
2023/12/18 04:29:37;;;;;;;22.90;7.75;;;8.30;99.90;;;;;;4906320;29;20052;-82
2023/12/18 04:32:04;;;;;;;22.63;8.20;;;8.10;99.90;;;;;;4918328;29;20055;-75
2023/12/18 04:34:30;;;;;;;24.02;7.78;;;8.10;99.90;;;;;;4927657;29;20052;-83
2023/12/18 04:36:55;;;;;;;28.35;7.43;;;8.10;99.90;;;;;;4926455;29;20051;-81
2023/12/18 04:39:21;;;;;;;26.85;7.72;;;8.30;99.90;;;;;;4926211;29;20472;-82
2023/12/18 04:41:47;;;;;;;27.88;8.50;;;8.10;99.90;;;;;;4923217;29;20051;-83
2023/12/18 04:44:12;;;;;;;23.33;7.90;;;8.10;99.90;;;;;;4919695;29;20052;-79
2023/12/18 04:46:38;;;;;;;26.00;8.85;;;8.20;99.90;;;;;;4919618;29;20044;-78
2023/12/18 04:49:05;;;;;;;25.05;7.85;;;8.20;99.90;;;;;;4922535;29;20127;-76
2023/12/18 04:51:30;;;;;;;27.00;8.27;;;8.10;99.90;;;;;;4915752;29;20048;-77
2023/12/18 04:53:56;;;;;;;24.38;7.57;;;8.30;99.90;;;;;;4919442;29;20116;-77
2023/12/18 04:56:22;;;;;;;27.15;8.13;;;8.20;99.90;;;;;;4913646;29;20044;-82
2023/12/18 04:58:48;;;;;;;24.77;8.40;;;8.10;99.90;;;;;;4928444;29;20119;-83
2023/12/18 05:01:13;;;;;;;26.83;7.95;;;8.20;99.90;;;;;;4916099;29;20052;-75
2023/12/18 05:03:39;;;;;;;25.50;8.05;;;8.20;99.90;;;;;;4913859;29;20055;-76
2023/12/18 05:06:17;;;;;;;26.17;7.55;;;8.20;99.90;;;;;;4927656;29;20048;-84
2023/12/18 05:08:42;;;;;;;28.83;8.32;;;8.20;99.90;;;;;;4926799;29;20455;-77
2023/12/18 05:11:08;;;;;;;25.50;8.05;;;8.20;99.90;;;;;;4914057;29;20147;-75
2023/12/18 05:13:33;;;;;;;22.13;7.32;;;8.20;99.90;;;;;;4918818;29;20055;-79
2023/12/18 05:15:59;;;;;;;25.13;8.02;;;8.20;99.90;;;;;;4922020;29;20054;-83
2023/12/18 05:18:25;;;;;;;29.73;8.68;;;8.40;99.90;;;;;;4919301;29;20529;-86
2023/12/18 05:20:53;;;;;;;21.45;7.97;;;8.60;99.90;;;;;;4916401;29;20048;-87
2023/12/18 05:23:18;;;;;;;29.33;8.38;;;8.50;99.90;;;;;;4915868;29;20492;-76
2023/12/18 05:25:44;;;;;;;26.98;9.13;;;8.20;99.90;;;;;;4924549;29;20075;-76
2023/12/18 05:28:10;;;;;;;18.75;7.93;;;8.20;99.90;;;;;;4921600;29;20052;-81
2023/12/18 05:30:36;;;;;;;30.30;8.98;;;8.20;99.90;;;;;;4930276;29;20048;-76
2023/12/18 05:33:02;;;;;;;28.38;8.95;;;8.30;99.90;;;;;;4913975;29;20056;-84
2023/12/18 05:35:28;;;;;;;29.83;8.30;;;8.30;99.90;;;;;;4917719;29;20060;-80
2023/12/18 05:37:54;;;;;;;29.27;8.90;;;8.40;99.90;;;;;;4917146;29;20048;-79
2023/12/18 05:40:19;;;;;;;21.55;7.97;;;8.50;99.90;;;;;;4929146;29;20095;-76
2023/12/18 05:42:45;;;;;;;25.35;6.88;;;8.30;99.90;;;;;;4921632;29;20052;-75
2023/12/18 05:45:10;;;;;;;30.33;7.78;;;8.30;99.90;;;;;;4933054;29;20040;-78
2023/12/18 05:47:36;;;;;;;24.65;7.50;;;8.40;99.90;;;;;;4922758;29;20051;-76
2023/12/18 05:50:02;;;;;;;18.92;7.57;;;8.30;99.90;;;;;;4913955;29;20055;-80
2023/12/18 05:52:27;;;;;;;28.08;8.68;;;8.30;99.90;;;;;;4912645;29;20048;-77
2023/12/18 05:54:53;;;;;;;18.88;7.75;;;8.90;99.90;;;;;;4918022;29;20047;-85
2023/12/18 05:57:19;;;;;;;29.75;8.40;;;8.30;99.90;;;;;;4931955;29;20058;-76
2023/12/18 05:59:44;;;;;;;25.85;7.72;;;8.30;99.90;;;;;;4913221;29;20052;-77
2023/12/18 06:02:10;;;;;;;28.35;8.40;;;8.30;99.90;;;;;;4916251;29;20135;-77
2023/12/18 06:04:38;;;;;;;19.63;7.60;;;8.30;99.90;;;;;;4917678;29;20640;-78
2023/12/18 06:07:04;;;;;;;25.10;7.80;;;8.30;99.90;;;;;;4917893;29;20059;-81
2023/12/18 06:09:30;;;;;;;18.27;8.05;;;8.40;99.90;;;;;;4917662;29;20044;-79
2023/12/18 06:11:55;;;;;;;20.55;8.57;;;8.40;99.90;;;;;;4927222;29;20063;-85
2023/12/18 06:14:21;;;;;;;26.35;8.63;;;8.30;99.90;;;;;;4924336;29;20048;-76
2023/12/18 06:16:47;;;;;;;27.20;8.93;;;8.30;99.90;;;;;;4925202;29;20043;-76
2023/12/18 06:19:12;;;;;;;24.88;8.60;;;8.40;99.90;;;;;;4924656;29;20056;-86
2023/12/18 06:21:41;;;;;;;20.48;8.13;;;8.40;99.90;;;;;;4921200;29;20456;-84
2023/12/18 06:24:07;;;;;;;18.67;8.25;;;8.40;99.90;;;;;;4923814;29;20503;-75
2023/12/18 06:26:33;;;;;;;28.63;9.07;;;8.70;99.90;;;;;;4915871;29;20060;-75
2023/12/18 06:28:58;;;;;;;23.48;8.52;;;8.40;99.90;;;;;;4921691;29;20126;-78
2023/12/18 06:31:24;;;;;;;28.85;8.77;;;8.40;99.90;;;;;;4925097;29;20131;-75
2023/12/18 06:33:50;;;;;;;26.92;9.02;;;8.80;99.90;;;;;;4907043;29;20051;-81
2023/12/18 06:36:19;;;;;;;25.27;9.73;;;8.90;99.90;;;;;;4913853;29;20056;-79
2023/12/18 06:38:45;;;;;;;37.88;9.50;;;8.60;99.90;;;;;;4926151;29;20063;-75
2023/12/18 06:41:11;;;;;;;28.13;8.57;;;8.30;99.90;;;;;;4923588;29;20044;-74
2023/12/18 06:43:38;;;;;;;26.10;9.35;;;8.30;99.90;;;;;;4922106;29;20032;-80
2023/12/18 06:46:04;;;;;;;36.65;9.40;;;8.30;99.90;;;;;;4932269;29;20098;-78
2023/12/18 06:48:30;;;;;;;27.95;9.13;;;8.30;99.90;;;;;;4916450;29;20111;-75
2023/12/18 06:50:55;;;;;;;26.63;9.65;;;8.30;99.90;;;;;;4925370;29;20048;-79
2023/12/18 06:53:21;;;;;;;30.67;9.98;;;8.80;99.90;;;;;;4923182;29;20131;-77
2023/12/18 06:55:47;;;;;;;27.08;8.93;;;8.30;99.90;;;;;;4916425;29;20078;-77
2023/12/18 06:58:12;;;;;;;25.15;9.63;;;8.30;99.90;;;;;;4935095;29;20535;-78
2023/12/18 07:00:38;;;;;;;35.08;10.57;;;8.30;99.90;;;;;;4914278;29;20416;-76
2023/12/18 07:03:04;;;;;;;25.33;9.68;;;8.30;99.90;;;;;;4924970;29;20056;-81
2023/12/18 07:05:30;;;;;;;25.38;9.93;;;8.30;99.90;;;;;;4924196;29;20135;-75
2023/12/18 07:07:56;;;;;;;33.28;10.75;;;8.90;99.90;;;;;;4917057;29;20040;-87
2023/12/18 07:10:22;;;;;;;31.63;10.55;;;8.30;99.90;;;;;;4931902;29;20434;-88
2023/12/18 07:12:48;;;;;;;27.45;10.48;;;8.40;99.90;;;;;;4936184;29;20062;-83
2023/12/18 07:15:15;;;;;;;29.25;9.98;;;8.30;99.90;;;;;;4930369;29;20056;-76
2023/12/18 07:17:41;;;;;;;24.80;10.52;;;8.70;99.90;;;;;;4917775;29;20059;-76
2023/12/18 07:20:08;;;;;;;27.35;11.00;;;8.30;99.90;;;;;;4928531;29;20044;-83
2023/12/18 07:22:34;;;;;;;26.98;9.57;;;8.20;99.90;;;;;;4922259;29;20056;-77
2023/12/18 07:25:01;;;;;;;29.63;10.65;;;8.20;99.90;;;;;;4933222;29;20051;-77
2023/12/18 07:27:27;;;;;;;29.88;10.82;;;8.60;99.90;;;;;;4929582;29;20052;-75
2023/12/18 07:29:52;;;;;;;34.78;10.32;;;8.30;99.90;;;;;;4920064;29;20102;-75
2023/12/18 07:32:19;;;;;;;38.00;10.82;;;8.30;99.90;;;;;;4925656;29;20033;-77
2023/12/18 07:34:45;;;;;;;29.52;10.70;;;8.50;99.90;;;;;;4925125;29;20047;-79
2023/12/18 07:37:11;;;;;;;27.88;10.48;;;8.30;99.90;;;;;;4935897;29;20047;-77
2023/12/18 07:39:37;;;;;;;23.70;10.75;;;8.30;99.90;;;;;;4923081;29;20119;-78
2023/12/18 07:42:03;;;;;;;27.65;10.15;;;8.30;99.90;;;;;;4916966;29;20433;-74
2023/12/18 07:44:28;;;;;;;25.48;10.45;;;8.30;99.90;;;;;;4921378;29;20043;-85
2023/12/18 07:46:54;;;;;;;33.55;11.45;;;8.30;99.90;;;;;;4922723;29;20040;-74
2023/12/18 07:49:20;;;;;;;31.38;11.07;;;8.30;99.90;;;;;;4927250;29;20048;-75
2023/12/18 07:51:45;;;;;;;27.80;9.70;;;8.70;99.90;;;;;;4930220;29;20051;-75
2023/12/18 07:54:12;;;;;;;28.95;10.50;;;8.40;99.90;;;;;;4918126;29;20111;-78
2023/12/18 07:56:37;;;;;;;28.35;9.95;;;8.30;99.90;;;;;;4919610;29;20404;-80
2023/12/18 07:59:03;;;;;;;28.42;10.52;;;8.30;99.90;;;;;;4926739;29;20048;-81
2023/12/18 08:01:29;;;;;;;35.97;11.45;;;8.30;99.90;;;;;;4912416;29;20130;-87
2023/12/18 08:03:54;;;;;;;29.83;10.50;;;8.70;99.90;;;;;;4925459;29;20444;-77
2023/12/18 08:06:20;;;;;;;36.80;11.27;;;8.30;99.90;;;;;;4933011;29;20055;-74
2023/12/18 08:08:45;;;;;;;36.17;11.00;;;8.40;99.90;;;;;;4915627;29;20416;-79
2023/12/18 08:11:11;;;;;;;33.72;10.38;;;8.30;99.90;;;;;;4923724;29;20048;-75
2023/12/18 08:13:40;;;;;;;31.88;11.07;;;8.30;99.90;;;;;;4922501;29;20047;-74
2023/12/18 08:16:07;;;;;;;28.48;10.95;;;8.70;99.90;;;;;;4916523;29;20059;-75
2023/12/18 08:18:33;;;;;;;30.63;11.88;;;8.30;99.90;;;;;;4918328;29;20056;-78
2023/12/18 08:20:58;;;;;;;28.50;11.95;;;8.30;99.90;;;;;;4922937;29;20052;-78
2023/12/18 08:23:24;;;;;;;31.30;9.50;;;8.30;99.90;;;;;;4923721;29;20052;-80
2023/12/18 08:25:50;;;;;;;29.42;11.48;;;8.30;99.90;;;;;;4922418;29;20047;-79
2023/12/18 08:28:15;;;;;;;33.78;10.80;;;8.40;99.90;;;;;;4919011;29;20154;-81
2023/12/18 08:30:43;;;;;;;30.08;11.07;;;8.80;99.90;;;;;;4922901;29;20051;-77
2023/12/18 08:33:08;;;;;;;23.67;11.75;;;8.30;99.90;;;;;;4915981;29;20052;-75
2023/12/18 08:35:34;;;;;;;41.10;12.25;;;8.60;99.90;;;;;;4925864;29;20053;-74
2023/12/18 08:37:59;;;;;;;44.58;13.00;;;8.40;99.90;;;;;;4922724;29;20048;-81
2023/12/18 08:40:25;;;;;;;28.40;11.18;;;8.40;99.90;;;;;;4917942;29;20135;-77
2023/12/18 08:42:52;;;;;;;40.78;11.82;;;8.40;99.90;;;;;;4906927;29;20048;-80
2023/12/18 08:45:17;;;;;;;38.85;12.43;;;8.40;99.90;;;;;;4918099;29;20134;-76
2023/12/18 08:47:43;;;;;;;31.33;11.13;;;8.70;99.90;;;;;;4920187;29;20100;-77
2023/12/18 08:50:09;;;;;;;33.30;11.57;;;8.50;99.90;;;;;;4915867;29;20134;-75
2023/12/18 08:52:35;;;;;;;26.10;11.48;;;8.40;99.90;;;;;;4923821;29;21060;-74
2023/12/18 08:55:01;;;;;;;31.20;11.55;;;8.40;99.90;;;;;;4917412;29;20161;-75
2023/12/18 08:57:28;;;;;;;30.63;11.43;;;8.40;99.90;;;;;;4926264;29;20038;-79
2023/12/18 08:59:55;;;;;;;27.17;10.25;;;8.50;99.90;;;;;;4931114;29;20056;-87
2023/12/18 09:02:21;;;;;;;36.05;10.75;;;8.90;99.90;;;;;;4933023;29;20122;-81
2023/12/18 09:04:47;;;;;;;32.72;11.43;;;8.60;99.90;;;;;;4914539;29;20075;-74
2023/12/18 09:07:13;;;;;;;32.35;10.80;;;8.50;99.90;;;;;;4913461;29;20515;-76
2023/12/18 09:09:39;;;;;;;32.90;11.23;;;9.00;99.90;;;;;;4915048;29;20067;-81
2023/12/18 09:12:08;;;;;;;32.47;10.40;;;9.20;99.90;;;;;;4924321;29;20071;-75
2023/12/18 09:14:35;;;;;;;36.30;10.40;;;8.60;99.90;;;;;;4918039;29;20044;-80
2023/12/18 09:17:00;;;;;;;33.97;10.85;;;8.60;99.90;;;;;;4929910;29;20109;-83
2023/12/18 09:19:26;;;;;;;29.48;11.13;;;8.60;99.90;;;;;;4924626;29;20563;-77
2023/12/18 09:21:52;;;;;;;31.35;11.20;;;8.60;99.90;;;;;;4917252;29;20127;-77
2023/12/18 09:24:18;;;;;;;28.63;11.52;;;8.60;99.90;;;;;;4932154;29;20054;-74
2023/12/18 09:26:44;;;;;;;32.53;11.50;;;8.60;99.90;;;;;;4915896;29;20060;-74
2023/12/18 09:29:09;;;;;;;24.33;11.27;;;8.60;99.90;;;;;;4922403;29;20519;-81
2023/12/18 09:31:35;;;;;;;38.50;12.02;;;8.60;99.90;;;;;;4914443;29;20047;-74
2023/12/18 09:34:01;;;;;;;33.35;12.18;;;8.60;99.90;;;;;;4921663;29;20137;-74
2023/12/18 09:36:27;;;;;;;28.52;11.20;;;8.60;99.90;;;;;;4929363;29;20040;-91
2023/12/18 09:38:53;;;;;;;29.27;12.43;;;8.90;99.90;;;;;;4921730;29;20069;-89
2023/12/18 09:41:23;;;;;;;32.50;13.25;;;8.60;99.90;;;;;;4914753;29;20052;-90
2023/12/18 09:43:51;;;;;;;37.28;13.40;;;8.60;99.90;;;;;;4913973;29;20048;-90
2023/12/18 09:46:19;;;;;;;32.95;11.93;;;8.60;99.90;;;;;;4907083;29;20048;-77
2023/12/18 09:48:45;;;;;;;30.40;12.63;;;8.90;99.90;;;;;;4907024;29;20137;-86
2023/12/18 09:51:17;;;;;;;31.75;12.77;;;8.80;99.90;;;;;;4905416;29;20827;-74
2023/12/18 09:53:43;;;;;;;30.35;13.57;;;8.60;99.90;;;;;;4909100;29;20127;-79
2023/12/18 09:56:10;;;;;;;29.58;13.82;;;9.00;99.90;;;;;;4908458;29;20437;-85
2023/12/18 09:58:38;;;;;;;37.33;14.50;;;8.60;99.90;;;;;;4904874;29;20040;-78
2023/12/18 10:01:04;;;;;;;32.97;13.57;;;8.60;99.90;;;;;;4914303;29;20103;-82
2023/12/18 10:03:30;;;;;;;31.35;13.55;;;8.60;99.90;;;;;;4906987;29;20056;-75
2023/12/18 10:05:55;;;;;;;34.25;14.63;;;8.90;99.90;;;;;;4913698;29;20072;-77
2023/12/18 10:08:21;;;;;;;35.85;14.43;;;8.60;99.90;;;;;;4907046;29;20595;-74
2023/12/18 10:10:47;;;;;;;31.77;13.68;;;8.60;99.90;;;;;;4907168;29;20044;-78
2023/12/18 10:13:13;;;;;;;35.42;14.65;;;8.60;99.90;;;;;;4907751;29;20052;-75
2023/12/18 10:15:42;;;;;;;31.38;14.40;;;8.60;99.90;;;;;;4912828;29;20103;-77
2023/12/18 10:18:09;;;;;;;38.25;14.32;;;8.60;99.90;;;;;;4914259;29;20444;-75
2023/12/18 10:20:35;;;;;;;32.53;14.77;;;8.70;99.90;;;;;;4922534;29;20052;-81
2023/12/18 10:23:02;;;;;;;40.65;15.45;;;8.70;99.90;;;;;;4908171;29;20076;-79
2023/12/18 10:25:27;;;;;;;35.75;15.80;;;8.60;99.90;;;;;;4910218;29;20397;-76
2023/12/18 10:27:56;;;;;;;25.88;14.70;;;8.60;99.90;;;;;;4912236;29;20067;-87
2023/12/18 10:30:26;;;;;;;30.15;14.40;;;8.60;99.90;;;;;;4910074;29;20476;-82
2023/12/18 10:32:52;;;;;;;38.92;15.30;;;8.70;99.90;;;;;;4910167;29;20071;-80
2023/12/18 10:35:18;;;;;;;34.90;15.57;;;8.60;99.90;;;;;;4915196;29;20043;-74
2023/12/18 10:37:54;;;;;;;35.85;16.27;;;9.00;99.90;;;;;;4918187;29;20132;-86
2023/12/18 10:40:23;;;;;;;39.78;15.82;;;8.70;99.90;;;;;;4900837;29;20064;-86
2023/12/18 10:43:10;;;;;;;40.28;16.08;;;8.90;99.90;;;;;;4914050;29;20515;-77
2023/12/18 10:45:37;;;;;;;33.22;16.00;;;8.70;99.90;;;;;;4911515;29;20086;-80
2023/12/18 10:48:05;;;;;;;34.95;15.93;;;8.90;99.90;;;;;;4911237;29;20484;-76
2023/12/18 10:50:34;;;;;;;33.35;16.75;;;8.70;99.90;;;;;;4911977;29;20043;-83
2023/12/18 10:53:00;;;;;;;32.88;15.70;;;8.70;99.90;;;;;;4917219;29;20060;-76
2023/12/18 10:55:27;;;;;;;40.45;16.60;;;8.60;99.90;;;;;;4917976;29;20055;-81
2023/12/18 10:57:57;;;;;;;36.53;16.77;;;8.60;99.90;;;;;;4910636;29;20044;-75
2023/12/18 11:00:24;;;;;;;39.05;15.82;;;8.70;99.90;;;;;;4916097;29;20048;-83
2023/12/18 11:02:51;;;;;;;31.65;14.68;;;8.80;99.90;;;;;;4904169;29;20504;-76
2023/12/18 11:05:17;;;;;;;40.63;16.00;;;8.70;99.90;;;;;;4918051;29;20488;-83
2023/12/18 11:07:44;;;;;;;35.60;17.60;;;8.60;99.90;;;;;;4916490;29;20067;-79
2023/12/18 11:10:10;;;;;;;33.28;16.90;;;8.70;99.90;;;;;;4918762;29;20665;-81
2023/12/18 11:12:40;;;;;;;35.38;15.82;;;8.70;99.90;;;;;;4916466;29;20404;-80
2023/12/18 11:15:19;;;;;;;36.78;16.30;;;8.70;99.90;;;;;;4899039;29;20100;-76
2023/12/18 11:18:03;;;;;;;36.70;16.85;;;8.70;99.90;;;;;;4901619;29;20056;-83
2023/12/18 11:20:37;;;;;;;32.75;15.80;;;8.70;99.90;;;;;;4918262;29;20056;-76
2023/12/18 11:23:03;;;;;;;36.70;15.35;;;8.70;99.90;;;;;;4908577;29;20123;-75
2023/12/18 11:25:36;;;;;;;29.48;16.58;;;8.70;99.90;;;;;;4906349;29;20091;-74
2023/12/18 11:28:03;;;;;;;34.97;16.77;;;8.70;99.90;;;;;;4917658;29;20067;-83
2023/12/18 11:30:33;;;;;;;33.28;15.68;;;8.70;99.90;;;;;;4914453;29;20063;-86
2023/12/18 11:33:07;;;;;;;32.28;15.80;;;8.70;99.90;;;;;;4915000;29;20051;-91
2023/12/18 11:35:35;;;;;;;35.08;17.17;;;9.10;99.90;;;;;;4918398;29;20040;-85
2023/12/18 11:38:09;;;;;;;37.70;16.38;;;9.10;99.90;;;;;;4917677;29;20487;-88
2023/12/18 11:40:41;;;;;;;32.97;16.02;;;8.70;99.90;;;;;;4916584;29;20088;-81
2023/12/18 11:43:11;;;;;;;38.63;16.05;;;9.00;99.90;;;;;;4899655;29;20060;-83
2023/12/18 11:45:42;;;;;;;35.00;16.40;;;8.80;99.90;;;;;;4911400;29;20055;-77
2023/12/18 11:48:12;;;;;;;31.40;15.90;;;9.20;99.90;;;;;;4922724;29;20040;-83
2023/12/18 11:50:38;;;;;;;36.58;15.55;;;8.80;99.90;;;;;;4913834;29;20040;-76
2023/12/18 11:53:31;;;;;;;39.55;16.20;;;9.20;99.90;;;;;;4913561;29;20451;-80
2023/12/18 11:55:57;;;;;;;33.67;13.85;;;8.90;99.90;;;;;;4910888;29;20060;-79
2023/12/18 11:58:27;;;;;;;34.00;15.40;;;8.90;99.90;;;;;;4902100;29;20057;-74
2023/12/18 12:00:57;;;;;;;37.92;14.77;;;9.00;99.90;;;;;;4915055;29;20043;-90
2023/12/18 12:03:22;;;;;;;34.85;14.35;;;8.90;99.90;;;;;;4934111;29;20559;-84
2023/12/18 12:05:49;;;;;;;32.42;13.95;;;9.20;99.90;;;;;;4916193;29;20043;-73
2023/12/18 12:08:15;;;;;;;33.17;14.38;;;9.20;99.90;;;;;;4916089;29;20128;-78
2023/12/18 12:10:48;;;;;;;34.78;14.48;;;9.00;99.90;;;;;;4913930;29;20493;-75
2023/12/18 12:13:21;;;;;;;32.25;13.57;;;9.00;99.90;;;;;;4910439;29;20131;-75
2023/12/18 12:15:57;;;;;;;33.47;14.43;;;9.20;99.90;;;;;;4914748;29;20512;-74
2023/12/18 12:18:27;;;;;;;30.55;15.30;;;9.00;99.90;;;;;;4908683;29;20092;-77
2023/12/18 12:20:53;;;;;;;33.40;14.38;;;9.50;99.90;;;;;;4897000;29;20036;-80
2023/12/18 12:23:19;;;;;;;28.92;14.73;;;9.00;99.90;;;;;;4904650;29;20046;-75
2023/12/18 12:25:47;;;;;;;35.00;13.75;;;9.00;99.90;;;;;;4913019;29;20516;-82
2023/12/18 12:28:16;;;;;;;31.33;14.63;;;9.00;99.90;;;;;;4913486;29;20460;-77
2023/12/18 12:30:46;;;;;;;31.80;14.30;;;9.00;99.90;;;;;;4925062;29;20064;-74
2023/12/18 12:33:12;;;;;;;31.25;13.63;;;9.00;99.90;;;;;;4900419;29;20044;-74
2023/12/18 12:35:40;;;;;;;38.17;14.70;;;9.00;99.90;;;;;;4914435;29;20062;-75
2023/12/18 12:38:06;;;;;;;34.85;14.02;;;9.10;99.90;;;;;;4913437;29;20526;-80
2023/12/18 12:40:42;;;;;;;32.58;14.82;;;9.10;99.90;;;;;;4915467;29;20059;-75